EmpreSS Of The Seas — C6CM8 — position and weather

sailwx.info

Track history (hours):
 
Tides and Currents Weather Stations Pressure Air Temp Water Temp Dewpoint Dewpoint Depression Visibility Wind Speed Wind Dir Waves Ship Positions

EmpreSS Of The Seas

Last reported at 2017-Nov-16 22:57 UTC. Time now 2017-Nov-22 11:05 UTC.
Position N 25°30' W 079°59'.

Length 211 m; draft 7.3 m.

Type: Passenger vessel. MMSI: 311000515.

Date/timePositionNaut miles runAvg speedWind from/ knotsBaromVisibWave heightAir tempDewpointWater temp
2017-Nov-16 22:57N 25°30' W 079°59'613.7
2017-Nov-16 22:30N 25°36' W 080°00'714.0
2017-Nov-16 22:01N 25°43' W 080°03'510.5
2017-Nov-16 21:30N 25°46' W 080°08'3 5.0
2017-Nov-16 20:58N 25°47' W 080°11'0 0.0
2017-Nov-16 20:28N 25°47' W 080°11'0 0.0
2017-Nov-16 19:58N 25°47' W 080°11'0 0.0
2017-Nov-16 19:28N 25°47' W 080°11'0 0.0
2017-Nov-16 18:55N 25°47' W 080°11'0 0.0
2017-Nov-16 18:28N 25°47' W 080°11'0 0.0
2017-Nov-16 17:55N 25°47' W 080°11'0 0.0
2017-Nov-16 17:28N 25°47' W 080°11'0 0.0
2017-Nov-16 16:58N 25°47' W 080°11'0 0.0
2017-Nov-16 16:25N 25°47' W 080°11'0 0.0
2017-Nov-16 15:58N 25°47' W 080°11'0 0.0
2017-Nov-16 15:25N 25°47' W 080°11'0 0.0
2017-Nov-16 14:55N 25°47' W 080°11'0 0.0
2017-Nov-16 14:28N 25°47' W 080°11'0 0.0
2017-Nov-16 13:58N 25°47' W 080°11'0 0.0
2017-Nov-16 13:22N 25°47' W 080°11'0 0.0
2017-Nov-16 12:58N 25°47' W 080°11'0 0.0
2017-Nov-16 12:25N 25°47' W 080°11'0 0.0
2017-Nov-16 11:58N 25°47' W 080°11'0 0.9
2017-Nov-16 11:30N 25°47' W 080°11'3 5.7
2017-Nov-16 11:00N 25°46' W 080°08'5 9.4
2017-Nov-16 10:30N 25°46' W 080°03'5 9.6
2017-Nov-16 10:00N 25°46' W 079°58'4 7.3
2017-Nov-16 09:30N 25°45' W 079°54'3 6.6
2017-Nov-16 09:00N 25°43' W 079°51'3 6.7
2017-Nov-16 08:30N 25°40' W 079°49'4 7.1
2017-Nov-16 08:00N 25°37' W 079°48'5 9.7
2017-Nov-16 07:30N 25°32' W 079°45'  
2017-Nov-12 23:57N 25°27' W 079°58'612.5
2017-Nov-12 23:30N 25°32' W 079°58'613.2
2017-Nov-12 23:01N 25°39' W 080°01'815.1
2017-Nov-12 22:31N 25°45' W 080°05'4 8.5
2017-Nov-12 22:01N 25°46' W 080°09'1 2.4
2017-Nov-12 21:27N 25°47' W 080°11'0 0.0
2017-Nov-12 21:00N 25°47' W 080°11'0 0.0
2017-Nov-12 20:30N 25°47' W 080°11'0 0.0
2017-Nov-12 20:00N 25°47' W 080°11'0 0.0
2017-Nov-12 19:27N 25°47' W 080°11'0 0.0
2017-Nov-12 19:00N 25°47' W 080°11'0 0.0
2017-Nov-12 18:30N 25°47' W 080°11'0 0.0
2017-Nov-12 18:00N 25°47' W 080°11'0 0.0
2017-Nov-12 17:30N 25°47' W 080°11'0 0.0
2017-Nov-12 16:57N 25°47' W 080°11'0 0.0
2017-Nov-12 16:27N 25°47' W 080°11'0 0.0
2017-Nov-12 16:00N 25°47' W 080°11'0 0.0
2017-Nov-12 15:30N 25°47' W 080°11'0 0.0
2017-Nov-12 15:00N 25°47' W 080°11'0 0.0
2017-Nov-12 14:30N 25°47' W 080°11'0 0.0
2017-Nov-12 13:54N 25°47' W 080°11'0 0.0
2017-Nov-12 13:30N 25°47' W 080°11'0 0.0
2017-Nov-12 12:54N 25°47' W 080°11'0 0.0
2017-Nov-12 12:27N 25°47' W 080°11'0 0.7
2017-Nov-12 12:00N 25°47' W 080°11'2 4.6
2017-Nov-12 11:30N 25°46' W 080°09'5 9.2
2017-Nov-12 11:00N 25°47' W 080°03'4 7.4
2017-Nov-12 10:30N 25°45' W 079°60'611.4
2017-Nov-12 10:01N 25°41' W 079°55'611.1
2017-Nov-12 09:31N 25°36' W 079°53'611.8
2017-Nov-12 09:01N 25°30' W 079°53'15410.9
2017-Nov-11 18:55N 24°13' W 082°20'510.9
2017-Nov-11 18:30N 24°13' W 082°25'510.8
2017-Nov-11 18:00N 24°13' W 082°31'214 9.3
2017-Nov-10 19:04N 27°47' W 082°31'113.3
2017-Nov-10 19:00N 27°47' W 082°30'611.9
2017-Nov-10 18:30N 27°53' W 082°27'4 7.4
2017-Nov-10 18:00N 27°56' W 082°27'1 1.7
2017-Nov-10 17:31N 27°57' W 082°27'0 0.0
2017-Nov-10 17:01N 27°57' W 082°27'0 0.0
2017-Nov-10 16:07N 27°57' W 082°27'0 0.0
2017-Nov-10 16:01N 27°57' W 082°27'0 0.0
2017-Nov-10 15:31N 27°57' W 082°27'0 0.0
2017-Nov-10 15:01N 27°57' W 082°27'0 0.0
2017-Nov-10 13:37N 27°57' W 082°27'0 0.0
2017-Nov-10 13:22N 27°57' W 082°27'0 0.0
2017-Nov-10 12:58N 27°57' W 082°27'0 0.0
2017-Nov-10 12:31N 27°57' W 082°27'0 0.4
2017-Nov-10 12:00N 27°57' W 082°27'1 3.0
2017-Nov-10 11:30N 27°55' W 082°27'4 7.1
2017-Nov-10 11:00N 27°52' W 082°27'612.4
2017-Nov-10 10:30N 27°47' W 082°31'49415.4
2017-Nov-09 02:24N 20°36' W 086°56'616.7
2017-Nov-09 02:00N 20°30' W 086°59'1 2.4
2017-Nov-09 01:29N 20°29' W 086°59'0 0.0
2017-Nov-09 00:59N 20°29' W 086°59'0 0.0
2017-Nov-09 00:29N 20°29' W 086°59'0 0.0
2017-Nov-08 23:59N 20°29' W 086°59'0 0.0
2017-Nov-08 23:26N 20°29' W 086°59'0 0.0
2017-Nov-08 22:59N 20°29' W 086°59'0 0.0
2017-Nov-08 22:26N 20°29' W 086°59'0 0.0
2017-Nov-08 21:59N 20°29' W 086°59'0 0.0
2017-Nov-08 21:29N 20°29' W 086°59'0 0.0
2017-Nov-08 20:59N 20°29' W 086°59'0 0.0
2017-Nov-08 20:29N 20°29' W 086°59'0 0.0
2017-Nov-08 19:59N 20°29' W 086°59'0 0.0
2017-Nov-08 19:29N 20°29' W 086°59'0 0.0
2017-Nov-08 18:59N 20°29' W 086°59'0 0.0
2017-Nov-08 18:29N 20°29' W 086°59'0 0.0
2017-Nov-08 17:59N 20°29' W 086°59'0 0.0
2017-Nov-08 17:29N 20°29' W 086°59'0 0.0
2017-Nov-08 16:59N 20°29' W 086°59'2 3.2
2017-Nov-08 16:30N 20°30' W 086°59'5 9.8
2017-Nov-08 16:00N 20°35' W 086°58'  
Track history (hours):
 
Tides and Currents Weather Stations Pressure Air Temp Water Temp Dewpoint Dewpoint Depression Visibility Wind Speed Wind Dir Waves Ship Positions

EmpreSS Of The Seas

Last reported at 2017-Nov-16 22:57 UTC. Time now 2017-Nov-22 11:05 UTC.
Position N 25°30' W 079°59'.

Length 211 m; draft 7.3 m.

Type: Passenger vessel. MMSI: 311000515.

Date/timePositionNaut miles runAvg speedWind from/ knotsBaromVisibWave heightAir tempDewpointWater temp
2017-Nov-16 22:57N 25°30' W 079°59'613.7
2017-Nov-16 22:30N 25°36' W 080°00'714.0
2017-Nov-16 22:01N 25°43' W 080°03'510.5
2017-Nov-16 21:30N 25°46' W 080°08'3 5.0
2017-Nov-16 20:58N 25°47' W 080°11'0 0.0
2017-Nov-16 20:28N 25°47' W 080°11'0 0.0
2017-Nov-16 19:58N 25°47' W 080°11'0 0.0
2017-Nov-16 19:28N 25°47' W 080°11'0 0.0
2017-Nov-16 18:55N 25°47' W 080°11'0 0.0
2017-Nov-16 18:28N 25°47' W 080°11'0 0.0
2017-Nov-16 17:55N 25°47' W 080°11'0 0.0
2017-Nov-16 17:28N 25°47' W 080°11'0 0.0
2017-Nov-16 16:58N 25°47' W 080°11'0 0.0
2017-Nov-16 16:25N 25°47' W 080°11'0 0.0
2017-Nov-16 15:58N 25°47' W 080°11'0 0.0
2017-Nov-16 15:25N 25°47' W 080°11'0 0.0
2017-Nov-16 14:55N 25°47' W 080°11'0 0.0
2017-Nov-16 14:28N 25°47' W 080°11'0 0.0
2017-Nov-16 13:58N 25°47' W 080°11'0 0.0
2017-Nov-16 13:22N 25°47' W 080°11'0 0.0
2017-Nov-16 12:58N 25°47' W 080°11'0 0.0
2017-Nov-16 12:25N 25°47' W 080°11'0 0.0
2017-Nov-16 11:58N 25°47' W 080°11'0 0.9
2017-Nov-16 11:30N 25°47' W 080°11'3 5.7
2017-Nov-16 11:00N 25°46' W 080°08'5 9.4
2017-Nov-16 10:30N 25°46' W 080°03'5 9.6
2017-Nov-16 10:00N 25°46' W 079°58'4 7.3
2017-Nov-16 09:30N 25°45' W 079°54'3 6.6
2017-Nov-16 09:00N 25°43' W 079°51'3 6.7
2017-Nov-16 08:30N 25°40' W 079°49'4 7.1
2017-Nov-16 08:00N 25°37' W 079°48'5 9.7
2017-Nov-16 07:30N 25°32' W 079°45'  
2017-Nov-12 23:57N 25°27' W 079°58'612.5
2017-Nov-12 23:30N 25°32' W 079°58'613.2
2017-Nov-12 23:01N 25°39' W 080°01'815.1
2017-Nov-12 22:31N 25°45' W 080°05'4 8.5
2017-Nov-12 22:01N 25°46' W 080°09'1 2.4
2017-Nov-12 21:27N 25°47' W 080°11'0 0.0
2017-Nov-12 21:00N 25°47' W 080°11'0 0.0
2017-Nov-12 20:30N 25°47' W 080°11'0 0.0
2017-Nov-12 20:00N 25°47' W 080°11'0 0.0
2017-Nov-12 19:27N 25°47' W 080°11'0 0.0
2017-Nov-12 19:00N 25°47' W 080°11'0 0.0
2017-Nov-12 18:30N 25°47' W 080°11'0 0.0
2017-Nov-12 18:00N 25°47' W 080°11'0 0.0
2017-Nov-12 17:30N 25°47' W 080°11'0 0.0
2017-Nov-12 16:57N 25°47' W 080°11'0 0.0
2017-Nov-12 16:27N 25°47' W 080°11'0 0.0
2017-Nov-12 16:00N 25°47' W 080°11'0 0.0
2017-Nov-12 15:30N 25°47' W 080°11'0 0.0
2017-Nov-12 15:00N 25°47' W 080°11'0 0.0
2017-Nov-12 14:30N 25°47' W 080°11'0 0.0
2017-Nov-12 13:54N 25°47' W 080°11'0 0.0
2017-Nov-12 13:30N 25°47' W 080°11'0 0.0
2017-Nov-12 12:54N 25°47' W 080°11'0 0.0
2017-Nov-12 12:27N 25°47' W 080°11'0 0.7
2017-Nov-12 12:00N 25°47' W 080°11'2 4.6
2017-Nov-12 11:30N 25°46' W 080°09'5 9.2
2017-Nov-12 11:00N 25°47' W 080°03'4 7.4
2017-Nov-12 10:30N 25°45' W 079°60'611.4
2017-Nov-12 10:01N 25°41' W 079°55'611.1
2017-Nov-12 09:31N 25°36' W 079°53'611.8
2017-Nov-12 09:01N 25°30' W 079°53'15410.9
2017-Nov-11 18:55N 24°13' W 082°20'510.9
2017-Nov-11 18:30N 24°13' W 082°25'510.8
2017-Nov-11 18:00N 24°13' W 082°31'214 9.3
2017-Nov-10 19:04N 27°47' W 082°31'113.3
2017-Nov-10 19:00N 27°47' W 082°30'611.9
2017-Nov-10 18:30N 27°53' W 082°27'4 7.4
2017-Nov-10 18:00N 27°56' W 082°27'1 1.7
2017-Nov-10 17:31N 27°57' W 082°27'0 0.0
2017-Nov-10 17:01N 27°57' W 082°27'0 0.0
2017-Nov-10 16:07N 27°57' W 082°27'0 0.0
2017-Nov-10 16:01N 27°57' W 082°27'0 0.0
2017-Nov-10 15:31N 27°57' W 082°27'0 0.0
2017-Nov-10 15:01N 27°57' W 082°27'0 0.0
2017-Nov-10 13:37N 27°57' W 082°27'0 0.0
2017-Nov-10 13:22N 27°57' W 082°27'0 0.0
2017-Nov-10 12:58N 27°57' W 082°27'0 0.0
2017-Nov-10 12:31N 27°57' W 082°27'0 0.4
2017-Nov-10 12:00N 27°57' W 082°27'1 3.0
2017-Nov-10 11:30N 27°55' W 082°27'4 7.1
2017-Nov-10 11:00N 27°52' W 082°27'612.4
2017-Nov-10 10:30N 27°47' W 082°31'49415.4
2017-Nov-09 02:24N 20°36' W 086°56'616.7
2017-Nov-09 02:00N 20°30' W 086°59'1 2.4
2017-Nov-09 01:29N 20°29' W 086°59'0 0.0
2017-Nov-09 00:59N 20°29' W 086°59'0 0.0
2017-Nov-09 00:29N 20°29' W 086°59'0 0.0
2017-Nov-08 23:59N 20°29' W 086°59'0 0.0
2017-Nov-08 23:26N 20°29' W 086°59'0 0.0
2017-Nov-08 22:59N 20°29' W 086°59'0 0.0
2017-Nov-08 22:26N 20°29' W 086°59'0 0.0
2017-Nov-08 21:59N 20°29' W 086°59'0 0.0
2017-Nov-08 21:29N 20°29' W 086°59'0 0.0
2017-Nov-08 20:59N 20°29' W 086°59'0 0.0
2017-Nov-08 20:29N 20°29' W 086°59'0 0.0
2017-Nov-08 19:59N 20°29' W 086°59'0 0.0
2017-Nov-08 19:29N 20°29' W 086°59'0 0.0
2017-Nov-08 18:59N 20°29' W 086°59'0 0.0
2017-Nov-08 18:29N 20°29' W 086°59'0 0.0
2017-Nov-08 17:59N 20°29' W 086°59'0 0.0
2017-Nov-08 17:29N 20°29' W 086°59'0 0.0
2017-Nov-08 16:59N 20°29' W 086°59'2 3.2
2017-Nov-08 16:30N 20°30' W 086°59'5 9.8
2017-Nov-08 16:00N 20°35' W 086°58'  

Dump ship's entire track history